sensor_id;sensor_type;location;lat;lon;timestamp;P1;durP1;ratioP1;P2;durP2;ratioP2
1957;SDS011;979;51.076;13.748;2022-08-25T00:00:20;33.43;;;30.90;;
1957;SDS011;979;51.076;13.748;2022-08-25T00:02:49;36.90;;;34.00;;
1957;SDS011;979;51.076;13.748;2022-08-25T00:05:26;36.60;;;33.50;;
1957;SDS011;979;51.076;13.748;2022-08-25T00:07:58;34.87;;;31.83;;
1957;SDS011;979;51.076;13.748;2022-08-25T00:10:26;38.03;;;34.47;;
1957;SDS011;979;51.076;13.748;2022-08-25T00:13:00;34.70;;;31.90;;
1957;SDS011;979;51.076;13.748;2022-08-25T00:15:30;35.57;;;32.67;;
1957;SDS011;979;51.076;13.748;2022-08-25T00:18:01;35.03;;;32.30;;
1957;SDS011;979;51.076;13.748;2022-08-25T00:20:38;37.50;;;34.40;;
1957;SDS011;979;51.076;13.748;2022-08-25T00:23:14;35.60;;;32.77;;
1957;SDS011;979;51.076;13.748;2022-08-25T00:25:45;36.67;;;33.67;;
1957;SDS011;979;51.076;13.748;2022-08-25T00:28:14;35.10;;;32.20;;
1957;SDS011;979;51.076;13.748;2022-08-25T00:30:46;35.50;;;32.90;;
1957;SDS011;979;51.076;13.748;2022-08-25T00:33:18;36.20;;;33.40;;
1957;SDS011;979;51.076;13.748;2022-08-25T00:35:48;35.13;;;32.00;;
1957;SDS011;979;51.076;13.748;2022-08-25T00:38:20;35.03;;;32.53;;
1957;SDS011;979;51.076;13.748;2022-08-25T00:40:50;34.60;;;31.70;;
1957;SDS011;979;51.076;13.748;2022-08-25T00:43:35;35.30;;;32.70;;
1957;SDS011;979;51.076;13.748;2022-08-25T00:46:12;33.23;;;30.63;;
1957;SDS011;979;51.076;13.748;2022-08-25T00:48:46;33.80;;;31.27;;
1957;SDS011;979;51.076;13.748;2022-08-25T00:51:22;34.43;;;31.80;;
1957;SDS011;979;51.076;13.748;2022-08-25T00:53:56;33.20;;;30.70;;
1957;SDS011;979;51.076;13.748;2022-08-25T00:56:28;34.40;;;31.90;;
1957;SDS011;979;51.076;13.748;2022-08-25T00:58:59;33.63;;;30.83;;
1957;SDS011;979;51.076;13.748;2022-08-25T01:01:29;35.90;;;33.00;;
1957;SDS011;979;51.076;13.748;2022-08-25T01:03:58;34.13;;;31.57;;
1957;SDS011;979;51.076;13.748;2022-08-25T01:06:29;32.43;;;30.30;;
1957;SDS011;979;51.076;13.748;2022-08-25T01:09:05;34.60;;;32.00;;
1957;SDS011;979;51.076;13.748;2022-08-25T01:11:34;34.93;;;32.37;;
1957;SDS011;979;51.076;13.748;2022-08-25T01:14:03;33.57;;;30.77;;
1957;SDS011;979;51.076;13.748;2022-08-25T01:16:33;33.00;;;30.20;;
1957;SDS011;979;51.076;13.748;2022-08-25T01:19:11;33.20;;;30.70;;
1957;SDS011;979;51.076;13.748;2022-08-25T01:21:43;35.90;;;32.63;;
1957;SDS011;979;51.076;13.748;2022-08-25T01:24:19;33.80;;;30.97;;
1957;SDS011;979;51.076;13.748;2022-08-25T01:26:53;33.07;;;30.57;;
1957;SDS011;979;51.076;13.748;2022-08-25T01:29:24;31.93;;;29.43;;
1957;SDS011;979;51.076;13.748;2022-08-25T01:31:53;33.27;;;30.67;;
1957;SDS011;979;51.076;13.748;2022-08-25T01:34:24;33.17;;;31.03;;
1957;SDS011;979;51.076;13.748;2022-08-25T01:36:56;33.67;;;31.07;;
1957;SDS011;979;51.076;13.748;2022-08-25T01:39:28;34.10;;;31.50;;
1957;SDS011;979;51.076;13.748;2022-08-25T01:42:08;32.33;;;29.90;;
1957;SDS011;979;51.076;13.748;2022-08-25T01:44:45;31.13;;;28.90;;
1957;SDS011;979;51.076;13.748;2022-08-25T01:47:17;31.83;;;29.40;;
1957;SDS011;979;51.076;13.748;2022-08-25T01:49:48;36.77;;;30.73;;
1957;SDS011;979;51.076;13.748;2022-08-25T01:52:24;32.07;;;29.33;;
1957;SDS011;979;51.076;13.748;2022-08-25T01:55:03;31.53;;;29.10;;
1957;SDS011;979;51.076;13.748;2022-08-25T01:57:50;32.13;;;29.73;;
1957;SDS011;979;51.076;13.748;2022-08-25T02:00:23;34.47;;;31.67;;
1957;SDS011;979;51.076;13.748;2022-08-25T02:02:51;33.83;;;30.27;;
1957;SDS011;979;51.076;13.748;2022-08-25T02:05:21;32.27;;;29.70;;
1957;SDS011;979;51.076;13.748;2022-08-25T02:07:50;32.30;;;29.50;;
1957;SDS011;979;51.076;13.748;2022-08-25T02:10:19;33.87;;;30.93;;
1957;SDS011;979;51.076;13.748;2022-08-25T02:12:54;32.50;;;29.90;;
1957;SDS011;979;51.076;13.748;2022-08-25T02:15:34;33.80;;;30.63;;
1957;SDS011;979;51.076;13.748;2022-08-25T02:18:10;33.97;;;31.17;;
1957;SDS011;979;51.076;13.748;2022-08-25T02:20:41;33.97;;;30.97;;
1957;SDS011;979;51.076;13.748;2022-08-25T02:23:13;33.80;;;30.87;;
1957;SDS011;979;51.076;13.748;2022-08-25T02:25:46;33.70;;;30.80;;
1957;SDS011;979;51.076;13.748;2022-08-25T02:28:16;33.50;;;30.90;;
1957;SDS011;979;51.076;13.748;2022-08-25T02:30:49;34.83;;;32.23;;
1957;SDS011;979;51.076;13.748;2022-08-25T02:33:27;34.63;;;31.63;;
1957;SDS011;979;51.076;13.748;2022-08-25T02:35:58;33.87;;;31.47;;
1957;SDS011;979;51.076;13.748;2022-08-25T02:38:33;35.20;;;32.17;;
1957;SDS011;979;51.076;13.748;2022-08-25T02:41:13;34.87;;;31.97;;
1957;SDS011;979;51.076;13.748;2022-08-25T02:43:44;35.23;;;32.30;;
1957;SDS011;979;51.076;13.748;2022-08-25T02:46:14;33.70;;;31.10;;
1957;SDS011;979;51.076;13.748;2022-08-25T02:48:45;34.90;;;32.27;;
1957;SDS011;979;51.076;13.748;2022-08-25T02:51:14;35.00;;;32.20;;
1957;SDS011;979;51.076;13.748;2022-08-25T02:53:46;33.50;;;31.00;;
1957;SDS011;979;51.076;13.748;2022-08-25T02:56:15;33.53;;;30.87;;
1957;SDS011;979;51.076;13.748;2022-08-25T02:58:45;33.60;;;30.73;;
1957;SDS011;979;51.076;13.748;2022-08-25T03:01:14;34.40;;;31.70;;
1957;SDS011;979;51.076;13.748;2022-08-25T03:03:43;36.00;;;32.60;;
1957;SDS011;979;51.076;13.748;2022-08-25T03:06:16;34.13;;;31.33;;
1957;SDS011;979;51.076;13.748;2022-08-25T03:08:47;35.43;;;32.53;;
1957;SDS011;979;51.076;13.748;2022-08-25T03:11:22;37.17;;;33.50;;
1957;SDS011;979;51.076;13.748;2022-08-25T03:13:52;35.30;;;32.27;;
1957;SDS011;979;51.076;13.748;2022-08-25T03:16:25;35.80;;;32.47;;
1957;SDS011;979;51.076;13.748;2022-08-25T03:18:58;37.77;;;34.03;;
1957;SDS011;979;51.076;13.748;2022-08-25T03:21:31;35.37;;;32.40;;
1957;SDS011;979;51.076;13.748;2022-08-25T03:24:03;34.90;;;31.90;;
1957;SDS011;979;51.076;13.748;2022-08-25T03:26:39;36.37;;;32.90;;
1957;SDS011;979;51.076;13.748;2022-08-25T03:29:24;35.10;;;32.40;;
1957;SDS011;979;51.076;13.748;2022-08-25T03:31:55;33.37;;;30.73;;
1957;SDS011;979;51.076;13.748;2022-08-25T03:34:28;36.10;;;33.10;;
1957;SDS011;979;51.076;13.748;2022-08-25T03:37:01;34.60;;;31.80;;
1957;SDS011;979;51.076;13.748;2022-08-25T03:39:35;33.30;;;30.57;;
1957;SDS011;979;51.076;13.748;2022-08-25T03:42:08;35.20;;;32.50;;
1957;SDS011;979;51.076;13.748;2022-08-25T03:44:38;34.00;;;31.23;;
1957;SDS011;979;51.076;13.748;2022-08-25T03:47:10;34.40;;;31.40;;
1957;SDS011;979;51.076;13.748;2022-08-25T03:49:41;35.43;;;32.53;;
1957;SDS011;979;51.076;13.748;2022-08-25T03:52:11;35.17;;;32.27;;
1957;SDS011;979;51.076;13.748;2022-08-25T03:54:41;35.37;;;32.37;;
1957;SDS011;979;51.076;13.748;2022-08-25T03:57:09;35.03;;;32.33;;
1957;SDS011;979;51.076;13.748;2022-08-25T03:59:38;38.57;;;33.50;;
1957;SDS011;979;51.076;13.748;2022-08-25T04:02:09;36.53;;;33.53;;
1957;SDS011;979;51.076;13.748;2022-08-25T04:04:38;36.53;;;33.30;;
1957;SDS011;979;51.076;13.748;2022-08-25T04:07:07;37.40;;;33.90;;
1957;SDS011;979;51.076;13.748;2022-08-25T04:09:37;39.17;;;35.70;;
1957;SDS011;979;51.076;13.748;2022-08-25T04:12:12;37.17;;;34.03;;
1957;SDS011;979;51.076;13.748;2022-08-25T04:14:44;38.13;;;35.03;;
1957;SDS011;979;51.076;13.748;2022-08-25T04:17:15;36.57;;;33.27;;
1957;SDS011;979;51.076;13.748;2022-08-25T04:19:46;35.83;;;32.93;;
1957;SDS011;979;51.076;13.748;2022-08-25T04:22:16;36.07;;;33.07;;
1957;SDS011;979;51.076;13.748;2022-08-25T04:24:45;36.97;;;33.97;;
1957;SDS011;979;51.076;13.748;2022-08-25T04:27:14;38.73;;;35.43;;
1957;SDS011;979;51.076;13.748;2022-08-25T04:29:43;35.50;;;32.40;;
1957;SDS011;979;51.076;13.748;2022-08-25T04:32:11;36.20;;;33.30;;
1957;SDS011;979;51.076;13.748;2022-08-25T04:34:40;35.63;;;32.83;;
1957;SDS011;979;51.076;13.748;2022-08-25T04:37:08;36.70;;;33.73;;
1957;SDS011;979;51.076;13.748;2022-08-25T04:39:37;36.50;;;33.30;;
1957;SDS011;979;51.076;13.748;2022-08-25T04:42:05;36.47;;;33.17;;
1957;SDS011;979;51.076;13.748;2022-08-25T04:44:35;36.90;;;33.90;;
1957;SDS011;979;51.076;13.748;2022-08-25T04:47:04;38.70;;;35.50;;
1957;SDS011;979;51.076;13.748;2022-08-25T04:49:36;38.10;;;35.03;;
1957;SDS011;979;51.076;13.748;2022-08-25T04:52:04;38.27;;;35.17;;
1957;SDS011;979;51.076;13.748;2022-08-25T04:54:40;37.93;;;34.73;;
1957;SDS011;979;51.076;13.748;2022-08-25T04:57:17;36.13;;;33.13;;
1957;SDS011;979;51.076;13.748;2022-08-25T05:02:56;37.97;;;34.70;;
1957;SDS011;979;51.076;13.748;2022-08-25T05:05:28;38.57;;;35.00;;
1957;SDS011;979;51.076;13.748;2022-08-25T05:07:59;37.13;;;34.23;;
1957;SDS011;979;51.076;13.748;2022-08-25T05:10:27;36.73;;;33.83;;
1957;SDS011;979;51.076;13.748;2022-08-25T05:12:56;36.73;;;34.03;;
1957;SDS011;979;51.076;13.748;2022-08-25T05:15:24;35.93;;;33.10;;
1957;SDS011;979;51.076;13.748;2022-08-25T05:18:17;37.03;;;34.00;;
1957;SDS011;979;51.076;13.748;2022-08-25T05:20:47;35.37;;;32.57;;
1957;SDS011;979;51.076;13.748;2022-08-25T05:23:18;35.70;;;32.90;;
1957;SDS011;979;51.076;13.748;2022-08-25T05:25:49;34.47;;;31.93;;
1957;SDS011;979;51.076;13.748;2022-08-25T05:28:38;36.17;;;33.47;;
1957;SDS011;979;51.076;13.748;2022-08-25T05:31:08;35.10;;;32.23;;
1957;SDS011;979;51.076;13.748;2022-08-25T05:33:46;34.83;;;32.20;;
1957;SDS011;979;51.076;13.748;2022-08-25T05:36:18;34.57;;;31.77;;
1957;SDS011;979;51.076;13.748;2022-08-25T05:38:52;36.23;;;33.20;;
1957;SDS011;979;51.076;13.748;2022-08-25T05:41:24;34.77;;;32.27;;
1957;SDS011;979;51.076;13.748;2022-08-25T05:43:55;35.80;;;33.00;;
1957;SDS011;979;51.076;13.748;2022-08-25T05:46:24;34.63;;;32.03;;
1957;SDS011;979;51.076;13.748;2022-08-25T05:49:00;34.73;;;32.23;;
1957;SDS011;979;51.076;13.748;2022-08-25T05:51:28;36.60;;;33.77;;
1957;SDS011;979;51.076;13.748;2022-08-25T05:53:57;36.30;;;33.50;;
1957;SDS011;979;51.076;13.748;2022-08-25T05:56:31;35.87;;;32.77;;
1957;SDS011;979;51.076;13.748;2022-08-25T05:59:03;36.80;;;34.10;;
1957;SDS011;979;51.076;13.748;2022-08-25T06:01:35;36.77;;;33.70;;
1957;SDS011;979;51.076;13.748;2022-08-25T06:04:22;37.87;;;34.83;;
1957;SDS011;979;51.076;13.748;2022-08-25T06:06:51;36.53;;;33.90;;
1957;SDS011;979;51.076;13.748;2022-08-25T06:09:22;41.07;;;36.97;;
1957;SDS011;979;51.076;13.748;2022-08-25T06:11:50;40.23;;;36.87;;
1957;SDS011;979;51.076;13.748;2022-08-25T06:14:20;38.23;;;35.07;;
1957;SDS011;979;51.076;13.748;2022-08-25T06:16:50;37.73;;;34.47;;
1957;SDS011;979;51.076;13.748;2022-08-25T06:19:32;37.73;;;34.63;;
1957;SDS011;979;51.076;13.748;2022-08-25T06:22:09;38.27;;;35.13;;
1957;SDS011;979;51.076;13.748;2022-08-25T06:24:37;38.77;;;35.80;;
1957;SDS011;979;51.076;13.748;2022-08-25T06:27:08;38.17;;;35.07;;
1957;SDS011;979;51.076;13.748;2022-08-25T06:29:37;39.73;;;36.47;;
1957;SDS011;979;51.076;13.748;2022-08-25T06:32:07;37.83;;;34.50;;
1957;SDS011;979;51.076;13.748;2022-08-25T06:34:41;36.40;;;33.47;;
1957;SDS011;979;51.076;13.748;2022-08-25T06:37:10;37.30;;;34.40;;
1957;SDS011;979;51.076;13.748;2022-08-25T06:39:40;38.60;;;35.30;;
1957;SDS011;979;51.076;13.748;2022-08-25T06:42:09;39.07;;;35.97;;
1957;SDS011;979;51.076;13.748;2022-08-25T06:44:40;120.73;;;45.23;;
1957;SDS011;979;51.076;13.748;2022-08-25T06:47:09;39.27;;;35.47;;
1957;SDS011;979;51.076;13.748;2022-08-25T06:49:42;38.70;;;35.80;;
1957;SDS011;979;51.076;13.748;2022-08-25T06:52:11;39.07;;;36.00;;
1957;SDS011;979;51.076;13.748;2022-08-25T06:54:40;39.80;;;36.80;;
1957;SDS011;979;51.076;13.748;2022-08-25T06:57:10;40.43;;;36.60;;
1957;SDS011;979;51.076;13.748;2022-08-25T06:59:43;40.30;;;37.00;;
1957;SDS011;979;51.076;13.748;2022-08-25T07:02:14;40.50;;;37.20;;
1957;SDS011;979;51.076;13.748;2022-08-25T07:04:49;39.43;;;36.33;;
1957;SDS011;979;51.076;13.748;2022-08-25T07:07:22;38.80;;;35.90;;
1957;SDS011;979;51.076;13.748;2022-08-25T07:10:09;41.37;;;37.93;;
1957;SDS011;979;51.076;13.748;2022-08-25T07:12:38;40.33;;;37.03;;
1957;SDS011;979;51.076;13.748;2022-08-25T07:15:09;39.87;;;36.90;;
1957;SDS011;979;51.076;13.748;2022-08-25T07:17:46;37.63;;;34.90;;
1957;SDS011;979;51.076;13.748;2022-08-25T07:20:18;38.17;;;35.07;;
1957;SDS011;979;51.076;13.748;2022-08-25T07:22:47;40.77;;;36.70;;
1957;SDS011;979;51.076;13.748;2022-08-25T07:25:15;39.97;;;36.80;;
1957;SDS011;979;51.076;13.748;2022-08-25T07:27:46;35.50;;;32.77;;
1957;SDS011;979;51.076;13.748;2022-08-25T07:30:16;40.10;;;36.80;;
1957;SDS011;979;51.076;13.748;2022-08-25T07:32:45;39.97;;;36.77;;
1957;SDS011;979;51.076;13.748;2022-08-25T07:35:22;41.23;;;37.83;;
1957;SDS011;979;51.076;13.748;2022-08-25T07:37:52;41.00;;;37.50;;
1957;SDS011;979;51.076;13.748;2022-08-25T07:40:26;39.40;;;36.40;;
1957;SDS011;979;51.076;13.748;2022-08-25T07:42:59;39.53;;;36.20;;
1957;SDS011;979;51.076;13.748;2022-08-25T07:45:31;39.23;;;36.17;;
1957;SDS011;979;51.076;13.748;2022-08-25T07:48:12;40.27;;;37.37;;
1957;SDS011;979;51.076;13.748;2022-08-25T07:50:52;38.47;;;35.67;;
1957;SDS011;979;51.076;13.748;2022-08-25T07:53:20;37.60;;;34.87;;
1957;SDS011;979;51.076;13.748;2022-08-25T07:55:48;41.07;;;37.20;;
1957;SDS011;979;51.076;13.748;2022-08-25T07:58:19;36.20;;;33.30;;
1957;SDS011;979;51.076;13.748;2022-08-25T08:00:47;36.00;;;33.30;;
1957;SDS011;979;51.076;13.748;2022-08-25T08:03:19;38.07;;;35.27;;
1957;SDS011;979;51.076;13.748;2022-08-25T08:09:14;39.90;;;36.90;;
1957;SDS011;979;51.076;13.748;2022-08-25T08:12:09;39.03;;;35.90;;
1957;SDS011;979;51.076;13.748;2022-08-25T08:14:59;37.63;;;34.83;;
1957;SDS011;979;51.076;13.748;2022-08-25T08:17:45;38.93;;;36.17;;
1957;SDS011;979;51.076;13.748;2022-08-25T08:20:42;36.17;;;33.57;;
1957;SDS011;979;51.076;13.748;2022-08-25T08:23:18;36.83;;;33.83;;
1957;SDS011;979;51.076;13.748;2022-08-25T08:25:56;36.63;;;34.00;;
1957;SDS011;979;51.076;13.748;2022-08-25T08:28:26;37.60;;;35.10;;
1957;SDS011;979;51.076;13.748;2022-08-25T08:31:05;39.83;;;36.93;;
1957;SDS011;979;51.076;13.748;2022-08-25T08:33:57;40.37;;;37.17;;
1957;SDS011;979;51.076;13.748;2022-08-25T08:36:42;39.27;;;36.37;;
1957;SDS011;979;51.076;13.748;2022-08-25T08:39:26;37.70;;;34.83;;
1957;SDS011;979;51.076;13.748;2022-08-25T08:42:12;40.37;;;36.83;;
1957;SDS011;979;51.076;13.748;2022-08-25T08:45:28;37.93;;;35.03;;
1957;SDS011;979;51.076;13.748;2022-08-25T08:48:16;37.37;;;34.77;;
1957;SDS011;979;51.076;13.748;2022-08-25T08:51:11;38.07;;;35.17;;
1957;SDS011;979;51.076;13.748;2022-08-25T08:53:59;35.60;;;33.40;;
1957;SDS011;979;51.076;13.748;2022-08-25T08:56:43;36.80;;;34.20;;
1957;SDS011;979;51.076;13.748;2022-08-25T08:59:27;37.87;;;35.17;;
1957;SDS011;979;51.076;13.748;2022-08-25T09:02:12;37.43;;;34.50;;
1957;SDS011;979;51.076;13.748;2022-08-25T09:05:23;37.13;;;34.53;;
1957;SDS011;979;51.076;13.748;2022-08-25T09:08:04;36.97;;;34.47;;
1957;SDS011;979;51.076;13.748;2022-08-25T09:10:59;35.77;;;33.27;;
1957;SDS011;979;51.076;13.748;2022-08-25T09:13:54;33.83;;;31.30;;
1957;SDS011;979;51.076;13.748;2022-08-25T09:16:37;31.97;;;29.87;;
1957;SDS011;979;51.076;13.748;2022-08-25T09:19:28;35.87;;;33.17;;
1957;SDS011;979;51.076;13.748;2022-08-25T09:22:17;34.60;;;32.10;;
1957;SDS011;979;51.076;13.748;2022-08-25T09:25:03;34.50;;;31.97;;
1957;SDS011;979;51.076;13.748;2022-08-25T09:27:39;32.27;;;29.90;;
1957;SDS011;979;51.076;13.748;2022-08-25T09:30:19;33.83;;;31.30;;
1957;SDS011;979;51.076;13.748;2022-08-25T09:32:57;33.60;;;31.27;;
1957;SDS011;979;51.076;13.748;2022-08-25T09:35:42;31.30;;;29.30;;
1957;SDS011;979;51.076;13.748;2022-08-25T09:38:22;33.97;;;31.70;;
1957;SDS011;979;51.076;13.748;2022-08-25T09:40:58;33.47;;;31.20;;
1957;SDS011;979;51.076;13.748;2022-08-25T09:43:53;32.03;;;29.73;;
1957;SDS011;979;51.076;13.748;2022-08-25T09:47:14;33.20;;;30.70;;
1957;SDS011;979;51.076;13.748;2022-08-25T09:50:07;32.83;;;30.40;;
1957;SDS011;979;51.076;13.748;2022-08-25T09:52:55;32.90;;;30.63;;
1957;SDS011;979;51.076;13.748;2022-08-25T09:55:55;34.70;;;32.00;;
1957;SDS011;979;51.076;13.748;2022-08-25T09:58:46;33.63;;;31.10;;
1957;SDS011;979;51.076;13.748;2022-08-25T10:02:00;32.63;;;30.20;;
1957;SDS011;979;51.076;13.748;2022-08-25T10:05:24;31.20;;;29.20;;
1957;SDS011;979;51.076;13.748;2022-08-25T10:08:40;30.40;;;28.30;;
1957;SDS011;979;51.076;13.748;2022-08-25T10:12:32;29.03;;;27.13;;
1957;SDS011;979;51.076;13.748;2022-08-25T10:15:47;27.13;;;25.20;;
1957;SDS011;979;51.076;13.748;2022-08-25T10:19:10;27.40;;;25.40;;
1957;SDS011;979;51.076;13.748;2022-08-25T10:22:00;27.53;;;25.37;;
1957;SDS011;979;51.076;13.748;2022-08-25T10:24:46;27.23;;;24.77;;
1957;SDS011;979;51.076;13.748;2022-08-25T10:27:46;27.50;;;24.97;;
1957;SDS011;979;51.076;13.748;2022-08-25T10:30:54;26.47;;;24.40;;
1957;SDS011;979;51.076;13.748;2022-08-25T10:33:58;28.10;;;25.90;;
1957;SDS011;979;51.076;13.748;2022-08-25T10:36:57;26.30;;;24.00;;
1957;SDS011;979;51.076;13.748;2022-08-25T10:39:45;26.73;;;24.40;;
1957;SDS011;979;51.076;13.748;2022-08-25T10:42:35;27.17;;;24.70;;
1957;SDS011;979;51.076;13.748;2022-08-25T10:45:20;25.30;;;23.03;;
1957;SDS011;979;51.076;13.748;2022-08-25T10:48:19;30.50;;;24.77;;
1957;SDS011;979;51.076;13.748;2022-08-25T10:51:27;27.83;;;25.17;;
1957;SDS011;979;51.076;13.748;2022-08-25T10:54:26;25.70;;;23.57;;
1957;SDS011;979;51.076;13.748;2022-08-25T10:57:13;27.00;;;24.80;;
1957;SDS011;979;51.076;13.748;2022-08-25T10:59:59;25.50;;;23.30;;
1957;SDS011;979;51.076;13.748;2022-08-25T11:06:11;27.63;;;25.33;;
1957;SDS011;979;51.076;13.748;2022-08-25T11:09:06;26.73;;;24.43;;
1957;SDS011;979;51.076;13.748;2022-08-25T11:11:57;27.13;;;24.53;;
1957;SDS011;979;51.076;13.748;2022-08-25T11:14:36;26.20;;;24.30;;
1957;SDS011;979;51.076;13.748;2022-08-25T11:17:21;28.13;;;25.40;;
1957;SDS011;979;51.076;13.748;2022-08-25T11:20:05;25.07;;;22.90;;
1957;SDS011;979;51.076;13.748;2022-08-25T11:23:19;26.50;;;24.60;;
1957;SDS011;979;51.076;13.748;2022-08-25T11:26:10;26.67;;;24.10;;
1957;SDS011;979;51.076;13.748;2022-08-25T11:28:57;27.67;;;24.77;;
1957;SDS011;979;51.076;13.748;2022-08-25T11:31:54;27.07;;;24.80;;
1957;SDS011;979;51.076;13.748;2022-08-25T11:34:42;27.53;;;25.10;;
1957;SDS011;979;51.076;13.748;2022-08-25T11:37:23;26.73;;;24.33;;
1957;SDS011;979;51.076;13.748;2022-08-25T11:40:11;25.40;;;23.10;;
1957;SDS011;979;51.076;13.748;2022-08-25T11:42:54;25.23;;;23.20;;
1957;SDS011;979;51.076;13.748;2022-08-25T11:48:39;26.93;;;24.83;;
1957;SDS011;979;51.076;13.748;2022-08-25T11:51:26;26.40;;;23.50;;
1957;SDS011;979;51.076;13.748;2022-08-25T11:54:20;26.80;;;24.53;;
1957;SDS011;979;51.076;13.748;2022-08-25T11:57:02;24.47;;;22.10;;
1957;SDS011;979;51.076;13.748;2022-08-25T12:02:36;26.70;;;24.53;;
1957;SDS011;979;51.076;13.748;2022-08-25T12:11:52;26.90;;;24.23;;
1957;SDS011;979;51.076;13.748;2022-08-25T12:17:20;24.67;;;22.43;;
1957;SDS011;979;51.076;13.748;2022-08-25T12:19:56;23.60;;;22.00;;
1957;SDS011;979;51.076;13.748;2022-08-25T12:22:42;22.93;;;21.03;;
1957;SDS011;979;51.076;13.748;2022-08-25T12:25:32;25.03;;;23.03;;
1957;SDS011;979;51.076;13.748;2022-08-25T12:28:34;25.33;;;23.10;;
1957;SDS011;979;51.076;13.748;2022-08-25T12:31:16;23.90;;;21.70;;
1957;SDS011;979;51.076;13.748;2022-08-25T12:34:00;25.13;;;22.53;;
1957;SDS011;979;51.076;13.748;2022-08-25T12:36:53;25.90;;;23.73;;
1957;SDS011;979;51.076;13.748;2022-08-25T12:39:28;25.37;;;23.20;;
1957;SDS011;979;51.076;13.748;2022-08-25T12:41:58;23.40;;;21.90;;
1957;SDS011;979;51.076;13.748;2022-08-25T12:44:37;23.60;;;22.03;;
1957;SDS011;979;51.076;13.748;2022-08-25T12:47:27;24.17;;;22.30;;
1957;SDS011;979;51.076;13.748;2022-08-25T12:50:37;24.73;;;22.17;;
1957;SDS011;979;51.076;13.748;2022-08-25T12:53:17;25.27;;;23.33;;
1957;SDS011;979;51.076;13.748;2022-08-25T12:56:01;23.70;;;21.87;;
1957;SDS011;979;51.076;13.748;2022-08-25T12:58:47;22.97;;;20.90;;
1957;SDS011;979;51.076;13.748;2022-08-25T13:01:31;23.50;;;21.60;;
1957;SDS011;979;51.076;13.748;2022-08-25T13:04:22;22.77;;;21.27;;
1957;SDS011;979;51.076;13.748;2022-08-25T13:07:19;23.20;;;21.20;;
1957;SDS011;979;51.076;13.748;2022-08-25T13:12:54;22.67;;;21.07;;
1957;SDS011;979;51.076;13.748;2022-08-25T13:15:37;24.03;;;22.03;;
1957;SDS011;979;51.076;13.748;2022-08-25T13:18:24;22.80;;;20.80;;
1957;SDS011;979;51.076;13.748;2022-08-25T13:21:01;23.07;;;21.30;;
1957;SDS011;979;51.076;13.748;2022-08-25T13:23:37;23.87;;;21.47;;
1957;SDS011;979;51.076;13.748;2022-08-25T13:26:12;22.23;;;20.40;;
1957;SDS011;979;51.076;13.748;2022-08-25T13:28:49;23.20;;;21.47;;
1957;SDS011;979;51.076;13.748;2022-08-25T13:31:21;24.73;;;22.70;;
1957;SDS011;979;51.076;13.748;2022-08-25T13:33:55;25.40;;;22.80;;
1957;SDS011;979;51.076;13.748;2022-08-25T13:36:28;26.17;;;23.70;;
1957;SDS011;979;51.076;13.748;2022-08-25T13:39:34;25.83;;;23.40;;
1957;SDS011;979;51.076;13.748;2022-08-25T13:42:22;26.73;;;24.13;;
1957;SDS011;979;51.076;13.748;2022-08-25T13:44:54;23.77;;;21.83;;
1957;SDS011;979;51.076;13.748;2022-08-25T13:47:31;25.13;;;22.90;;
1957;SDS011;979;51.076;13.748;2022-08-25T13:50:15;25.43;;;22.93;;
1957;SDS011;979;51.076;13.748;2022-08-25T13:52:48;26.00;;;23.03;;
1957;SDS011;979;51.076;13.748;2022-08-25T13:55:27;24.47;;;22.40;;
1957;SDS011;979;51.076;13.748;2022-08-25T13:58:17;25.13;;;23.03;;
1957;SDS011;979;51.076;13.748;2022-08-25T14:01:16;26.07;;;24.00;;
1957;SDS011;979;51.076;13.748;2022-08-25T14:04:19;24.83;;;22.60;;
1957;SDS011;979;51.076;13.748;2022-08-25T14:10:04;25.60;;;23.90;;
1957;SDS011;979;51.076;13.748;2022-08-25T14:12:40;25.07;;;22.70;;
1957;SDS011;979;51.076;13.748;2022-08-25T14:15:25;25.40;;;23.30;;
1957;SDS011;979;51.076;13.748;2022-08-25T14:17:59;24.37;;;22.23;;
1957;SDS011;979;51.076;13.748;2022-08-25T14:20:34;22.77;;;20.97;;
1957;SDS011;979;51.076;13.748;2022-08-25T14:23:08;23.43;;;21.83;;
1957;SDS011;979;51.076;13.748;2022-08-25T14:25:44;25.23;;;23.03;;
1957;SDS011;979;51.076;13.748;2022-08-25T14:28:19;24.60;;;22.40;;
1957;SDS011;979;51.076;13.748;2022-08-25T14:30:52;25.70;;;23.40;;
1957;SDS011;979;51.076;13.748;2022-08-25T14:34:14;25.60;;;23.20;;
1957;SDS011;979;51.076;13.748;2022-08-25T14:36:59;25.83;;;23.73;;
1957;SDS011;979;51.076;13.748;2022-08-25T14:39:29;23.83;;;21.97;;
1957;SDS011;979;51.076;13.748;2022-08-25T14:42:05;23.73;;;22.00;;
1957;SDS011;979;51.076;13.748;2022-08-25T14:44:38;23.37;;;21.50;;
1957;SDS011;979;51.076;13.748;2022-08-25T14:47:13;24.00;;;22.30;;
1957;SDS011;979;51.076;13.748;2022-08-25T14:49:45;23.83;;;21.73;;
1957;SDS011;979;51.076;13.748;2022-08-25T14:52:18;23.53;;;21.77;;
1957;SDS011;979;51.076;13.748;2022-08-25T14:54:50;23.27;;;21.00;;
1957;SDS011;979;51.076;13.748;2022-08-25T14:57:21;23.50;;;21.70;;
1957;SDS011;979;51.076;13.748;2022-08-25T14:59:51;23.83;;;22.03;;
1957;SDS011;979;51.076;13.748;2022-08-25T15:02:21;24.17;;;22.00;;
1957;SDS011;979;51.076;13.748;2022-08-25T15:04:56;24.27;;;22.10;;
1957;SDS011;979;51.076;13.748;2022-08-25T15:07:27;22.87;;;20.87;;
1957;SDS011;979;51.076;13.748;2022-08-25T15:10:16;23.87;;;21.97;;
1957;SDS011;979;51.076;13.748;2022-08-25T15:12:47;26.03;;;23.83;;
1957;SDS011;979;51.076;13.748;2022-08-25T15:15:21;25.03;;;23.17;;
1957;SDS011;979;51.076;13.748;2022-08-25T15:17:52;24.80;;;22.70;;
1957;SDS011;979;51.076;13.748;2022-08-25T15:20:26;24.17;;;21.90;;
1957;SDS011;979;51.076;13.748;2022-08-25T15:22:57;23.27;;;21.03;;
1957;SDS011;979;51.076;13.748;2022-08-25T15:25:26;22.70;;;20.80;;
1957;SDS011;979;51.076;13.748;2022-08-25T15:27:55;23.40;;;21.33;;
1957;SDS011;979;51.076;13.748;2022-08-25T15:30:25;23.67;;;21.43;;
1957;SDS011;979;51.076;13.748;2022-08-25T15:32:56;26.00;;;23.73;;
1957;SDS011;979;51.076;13.748;2022-08-25T15:35:25;26.53;;;24.03;;
1957;SDS011;979;51.076;13.748;2022-08-25T15:37:54;28.50;;;25.90;;
1957;SDS011;979;51.076;13.748;2022-08-25T15:40:23;23.57;;;21.50;;
1957;SDS011;979;51.076;13.748;2022-08-25T15:42:52;25.00;;;22.80;;
1957;SDS011;979;51.076;13.748;2022-08-25T15:45:21;25.00;;;22.70;;
1957;SDS011;979;51.076;13.748;2022-08-25T15:47:53;26.87;;;24.27;;
1957;SDS011;979;51.076;13.748;2022-08-25T15:50:22;24.83;;;22.93;;
1957;SDS011;979;51.076;13.748;2022-08-25T15:52:52;26.13;;;24.00;;
1957;SDS011;979;51.076;13.748;2022-08-25T15:55:20;27.77;;;25.30;;
1957;SDS011;979;51.076;13.748;2022-08-25T15:57:49;27.60;;;25.10;;
1957;SDS011;979;51.076;13.748;2022-08-25T16:00:20;24.40;;;22.40;;
1957;SDS011;979;51.076;13.748;2022-08-25T16:02:48;26.50;;;23.50;;
1957;SDS011;979;51.076;13.748;2022-08-25T16:05:19;25.87;;;23.50;;
1957;SDS011;979;51.076;13.748;2022-08-25T16:07:51;26.37;;;23.97;;
1957;SDS011;979;51.076;13.748;2022-08-25T16:10:20;26.03;;;23.37;;
1957;SDS011;979;51.076;13.748;2022-08-25T16:12:48;25.50;;;23.20;;
1957;SDS011;979;51.076;13.748;2022-08-25T16:15:17;25.87;;;24.17;;
1957;SDS011;979;51.076;13.748;2022-08-25T16:17:54;26.47;;;24.17;;
1957;SDS011;979;51.076;13.748;2022-08-25T16:20:25;29.07;;;26.20;;
1957;SDS011;979;51.076;13.748;2022-08-25T16:22:55;26.90;;;24.60;;